aviador You're here:

CYSF Decoded Metar

STONY RAPIDS in SK, CANADA
Report Time2017-06-29 12:00:00
UTC Time2017-06-29 12:23:32
Flight Rules vfr VFR
WindVRB at 02 kt
Visibility9999 m
Phenomena:N/A
Clouds:N/A
Expected CloudBase > 1,200 ft AGL from Temp-Dew spread
CeilingNone
Temp08°C (ISA -5)
Dew Point05°C (82% RH)
AAT6.2°C
QNH1016 hPa
Density Alt197 ft
Elevation820 ft
Report Wrong Elevation
Raw Report
CYSF 291200Z AUTO VRB02KT 9SM CLR 08/05 A2999 RMK SLP167=

Extra information for CYSF:More info

Metar Taf Metar & Taf Last 4 Metars F.Rules Stats Wind Profile Meteogram Temp Stats Airport Information Weather charts Add Link Nearby VenuesMetar ALERT Operation Metar Decoded Social comments